createdAt,value
2019-05-28T00:00:20.344Z,17.56
2019-05-28T00:01:19.326Z,17.59
2019-05-28T00:02:19.331Z,17.59
2019-05-28T00:03:19.303Z,17.51
2019-05-28T00:04:19.299Z,17.45
2019-05-28T00:05:19.275Z,17.46
2019-05-28T00:06:19.281Z,17.36
2019-05-28T00:07:19.255Z,17.38
2019-05-28T00:08:19.254Z,17.36
2019-05-28T00:09:19.254Z,17.30
2019-05-28T00:10:19.240Z,17.30
2019-05-28T00:11:19.224Z,17.23
2019-05-28T00:12:19.219Z,17.23
2019-05-28T00:13:19.225Z,17.27
2019-05-28T00:14:19.221Z,17.26
2019-05-28T00:15:19.189Z,17.29
2019-05-28T00:16:19.257Z,17.11
2019-05-28T00:17:19.146Z,17.23
2019-05-28T00:18:19.194Z,17.22
2019-05-28T00:19:19.197Z,17.12
2019-05-28T00:20:19.121Z,17.14
2019-05-28T00:21:19.109Z,17.14
2019-05-28T00:22:19.087Z,17.15
2019-05-28T00:23:19.083Z,17.14
2019-05-28T00:24:19.083Z,17.11
2019-05-28T00:25:19.062Z,17.11
2019-05-28T00:26:19.045Z,17.05
2019-05-28T00:27:19.051Z,17.15
2019-05-28T00:28:19.027Z,17.06
2019-05-28T00:29:19.036Z,17.04
2019-05-28T00:30:20.866Z,17.04
2019-05-28T00:31:18.991Z,17.01
2019-05-28T00:32:18.987Z,17.01
2019-05-28T00:33:19.022Z,16.96
2019-05-28T00:34:18.969Z,16.99
2019-05-28T00:35:18.965Z,16.94
2019-05-28T00:36:18.945Z,16.89
2019-05-28T00:37:18.923Z,16.86
2019-05-28T00:38:18.911Z,16.87
2019-05-28T00:39:18.905Z,16.84
2019-05-28T00:40:18.895Z,16.89
2019-05-28T00:41:18.884Z,16.81
2019-05-28T00:42:18.906Z,16.86
2019-05-28T00:43:18.922Z,16.89
2019-05-28T00:44:18.855Z,16.86
2019-05-28T00:45:18.841Z,16.87
2019-05-28T00:46:18.837Z,16.87
2019-05-28T00:47:18.837Z,16.79
2019-05-28T00:48:18.816Z,16.81
2019-05-28T00:49:18.795Z,16.75
2019-05-28T00:50:18.796Z,16.78
2019-05-28T00:51:18.777Z,16.78
2019-05-28T00:52:18.771Z,16.81
2019-05-28T00:53:18.773Z,16.68
2019-05-28T00:54:18.748Z,16.71
2019-05-28T00:55:18.737Z,16.74
2019-05-28T00:56:18.741Z,16.69
2019-05-28T00:57:18.715Z,16.64
2019-05-28T00:58:18.705Z,16.71
2019-05-28T00:59:18.702Z,16.53
2019-05-28T01:00:35.938Z,16.58
2019-05-28T01:01:19.668Z,16.56
2019-05-28T01:02:18.673Z,16.51
2019-05-28T01:03:18.643Z,16.51
2019-05-28T01:04:18.646Z,16.42
2019-05-28T01:05:18.628Z,16.47
2019-05-28T01:06:18.633Z,16.47
2019-05-28T01:07:18.603Z,16.38
2019-05-28T01:08:18.585Z,16.36
2019-05-28T01:09:18.592Z,16.39
2019-05-28T01:10:18.571Z,16.42
2019-05-28T01:11:18.559Z,16.41
2019-05-28T01:12:18.549Z,16.41
2019-05-28T01:13:18.555Z,16.42
2019-05-28T01:14:18.533Z,16.42
2019-05-28T01:15:18.518Z,16.39
2019-05-28T01:16:18.502Z,16.23
2019-05-28T01:17:18.487Z,16.32
2019-05-28T01:18:18.481Z,16.17
2019-05-28T01:19:18.480Z,16.13
2019-05-28T01:20:18.471Z,16.16
2019-05-28T01:21:18.450Z,16.17
2019-05-28T01:22:18.443Z,16.21
2019-05-28T01:23:18.429Z,16.17
2019-05-28T01:24:18.423Z,16.12
2019-05-28T01:25:18.420Z,16.01
2019-05-28T01:26:18.387Z,15.98
2019-05-28T01:27:18.395Z,15.91
2019-05-28T01:28:18.369Z,15.88
2019-05-28T01:29:18.363Z,15.76
2019-05-28T01:30:18.351Z,15.80
2019-05-28T01:31:18.352Z,15.77
2019-05-28T01:32:18.335Z,15.84
2019-05-28T01:33:18.327Z,15.88
2019-05-28T01:34:18.338Z,15.88
2019-05-28T01:35:18.302Z,15.90
2019-05-28T01:36:18.284Z,15.83
2019-05-28T01:37:18.272Z,15.77
2019-05-28T01:38:18.264Z,15.75
2019-05-28T01:39:18.254Z,15.65
2019-05-28T01:40:18.243Z,15.65
2019-05-28T01:41:18.231Z,15.65
2019-05-28T01:42:18.217Z,15.65
2019-05-28T01:43:18.213Z,15.61
2019-05-28T01:44:18.218Z,15.62
2019-05-28T01:45:18.184Z,15.72
2019-05-28T01:46:18.180Z,15.64
2019-05-28T01:47:18.160Z,15.67
2019-05-28T01:48:18.144Z,15.51
2019-05-28T01:49:18.146Z,15.54
2019-05-28T01:50:18.141Z,15.57
2019-05-28T01:51:18.122Z,15.49
2019-05-28T01:52:18.117Z,15.43
2019-05-28T01:53:18.094Z,15.44
2019-05-28T01:54:18.082Z,15.49
2019-05-28T01:55:18.080Z,15.39
2019-05-28T01:56:18.067Z,15.49
2019-05-28T01:57:18.050Z,15.51
2019-05-28T01:58:18.049Z,15.51
2019-05-28T01:59:18.029Z,15.57
2019-05-28T02:00:18.014Z,15.52
2019-05-28T02:01:18.012Z,15.65
2019-05-28T02:02:18.002Z,15.54
2019-05-28T02:03:17.988Z,15.49
2019-05-28T02:04:17.977Z,15.52
2019-05-28T02:05:17.965Z,15.57
2019-05-28T02:06:17.948Z,15.49
2019-05-28T02:07:17.954Z,15.61
2019-05-28T02:08:17.959Z,15.54
2019-05-28T02:09:17.926Z,15.54
2019-05-28T02:10:17.900Z,15.49
2019-05-28T02:11:17.894Z,15.51
2019-05-28T02:12:17.895Z,15.52
2019-05-28T02:13:17.877Z,15.59
2019-05-28T02:14:17.870Z,15.58
2019-05-28T02:15:17.871Z,15.54
2019-05-28T02:16:17.840Z,15.55
2019-05-28T02:17:17.826Z,15.55
2019-05-28T02:18:17.809Z,15.55
2019-05-28T02:19:17.802Z,15.58
2019-05-28T02:20:17.804Z,15.58
2019-05-28T02:21:17.789Z,15.52
2019-05-28T02:22:17.770Z,15.52
2019-05-28T02:23:17.762Z,15.55
2019-05-28T02:24:17.761Z,15.51
2019-05-28T02:25:17.748Z,15.43
2019-05-28T02:26:17.737Z,15.43
2019-05-28T02:27:17.714Z,15.55
2019-05-28T02:28:17.708Z,15.52
2019-05-28T02:29:17.689Z,15.54
2019-05-28T02:30:17.687Z,15.54
2019-05-28T02:31:27.255Z,15.54
2019-05-28T02:32:18.659Z,15.51
2019-05-28T02:33:17.646Z,15.58
2019-05-28T02:34:17.632Z,15.55
2019-05-28T02:35:17.628Z,15.44
2019-05-28T02:36:17.615Z,15.54
2019-05-28T02:37:17.611Z,15.51
2019-05-28T02:38:17.596Z,15.42
2019-05-28T02:39:17.580Z,15.33
2019-05-28T02:40:17.580Z,15.39
2019-05-28T02:41:17.566Z,15.43
2019-05-28T02:42:17.562Z,15.40
2019-05-28T02:43:17.544Z,15.37
2019-05-28T02:44:17.522Z,15.43
2019-05-28T02:45:17.542Z,15.31
2019-05-28T02:46:17.499Z,15.22
2019-05-28T02:47:17.497Z,15.11
2019-05-28T02:48:17.498Z,15.14
2019-05-28T02:49:17.484Z,15.14
2019-05-28T02:50:17.454Z,15.15
2019-05-28T02:51:17.452Z,15.17
2019-05-28T02:52:17.432Z,15.07
2019-05-28T02:53:17.426Z,15.04
2019-05-28T02:54:17.414Z,15.10
2019-05-28T02:55:17.400Z,14.97
2019-05-28T02:56:17.393Z,14.94
2019-05-28T02:57:17.395Z,15.04
2019-05-28T02:58:17.368Z,15.00
2019-05-28T02:59:17.371Z,15.04
2019-05-28T03:00:17.342Z,15.03
2019-05-28T03:01:17.336Z,15.09
2019-05-28T03:02:17.324Z,15.02
2019-05-28T03:03:17.314Z,14.94
2019-05-28T03:04:17.295Z,15.03
2019-05-28T03:05:17.302Z,15.04
2019-05-28T03:06:17.278Z,14.96
2019-05-28T03:07:17.266Z,14.89
2019-05-28T03:08:17.267Z,14.86
2019-05-28T03:09:17.240Z,14.81
2019-05-28T03:10:17.249Z,14.73
2019-05-28T03:11:17.235Z,14.81
2019-05-28T03:12:17.222Z,14.79
2019-05-28T03:13:17.206Z,14.77
2019-05-28T03:14:17.192Z,14.85
2019-05-28T03:15:17.181Z,14.81
2019-05-28T03:16:17.176Z,14.77
2019-05-28T03:17:17.152Z,14.85
2019-05-28T03:18:17.143Z,14.81
2019-05-28T03:19:17.150Z,14.92
2019-05-28T03:20:17.128Z,14.86
2019-05-28T03:21:17.119Z,14.78
2019-05-28T03:22:17.126Z,14.77
2019-05-28T03:23:17.091Z,14.73
2019-05-28T03:24:17.092Z,14.79
2019-05-28T03:25:17.066Z,14.73
2019-05-28T03:26:17.050Z,14.70
2019-05-28T03:27:17.062Z,14.78
2019-05-28T03:28:17.053Z,14.70
2019-05-28T03:29:17.025Z,14.78
2019-05-28T03:30:17.029Z,14.70
2019-05-28T03:31:17.001Z,14.73
2019-05-28T03:32:16.995Z,14.79
2019-05-28T03:33:16.994Z,14.79
2019-05-28T03:34:16.968Z,14.78
2019-05-28T03:35:25.636Z,14.88
2019-05-28T03:36:58.618Z,14.82
2019-05-28T03:37:58.597Z,14.84
2019-05-28T03:38:58.584Z,14.88
2019-05-28T03:39:58.572Z,14.91
2019-05-28T03:40:58.559Z,14.91
2019-05-28T03:41:58.566Z,14.91
2019-05-28T03:42:58.558Z,14.82
2019-05-28T03:43:58.526Z,14.84
2019-05-28T03:44:58.534Z,14.85
2019-05-28T03:45:58.501Z,14.82
2019-05-28T03:46:58.497Z,14.82
2019-05-28T03:47:58.501Z,14.78
2019-05-28T03:48:58.501Z,14.72
2019-05-28T03:49:58.461Z,14.72
2019-05-28T03:50:58.451Z,14.73
2019-05-28T03:51:58.439Z,14.77
2019-05-28T03:52:58.431Z,14.73
2019-05-28T03:53:58.472Z,14.78
2019-05-28T03:54:58.451Z,14.70
2019-05-28T03:55:58.398Z,14.78
2019-05-28T03:56:58.384Z,14.77
2019-05-28T03:57:58.367Z,14.97
2019-05-28T03:58:58.366Z,14.70
2019-05-28T03:59:58.348Z,14.73
2019-05-28T04:00:58.341Z,14.91
2019-05-28T04:01:58.329Z,14.89
2019-05-28T04:02:58.315Z,14.82
2019-05-28T04:03:58.296Z,14.78
2019-05-28T04:04:58.292Z,14.84
2019-05-28T04:05:58.278Z,14.81
2019-05-28T04:06:58.270Z,14.81
2019-05-28T04:07:58.262Z,14.88
2019-05-28T04:08:58.244Z,14.86
2019-05-28T04:09:58.242Z,14.89
2019-05-28T04:10:58.221Z,14.81
2019-05-28T04:11:58.247Z,14.89
2019-05-28T04:12:58.203Z,14.91
2019-05-28T04:13:58.202Z,14.91
2019-05-28T04:14:58.179Z,14.89
2019-05-28T04:15:58.179Z,14.92
2019-05-28T04:16:58.157Z,14.96
2019-05-28T04:17:58.147Z,15.03
2019-05-28T04:18:58.133Z,15.04
2019-05-28T04:19:58.123Z,14.99
2019-05-28T04:20:58.107Z,15.00
2019-05-28T04:21:58.099Z,15.02
2019-05-28T04:22:58.086Z,14.91
2019-05-28T04:23:58.083Z,15.04
2019-05-28T04:24:58.061Z,14.88
2019-05-28T04:25:58.067Z,14.88
2019-05-28T04:26:58.043Z,14.89
2019-05-28T04:27:58.035Z,14.89
2019-05-28T04:28:58.021Z,14.85
2019-05-28T04:29:58.013Z,14.77
2019-05-28T04:30:58.029Z,14.85
2019-05-28T04:31:57.985Z,14.77
2019-05-28T04:32:57.985Z,14.73
2019-05-28T04:33:58.493Z,14.72
2019-05-28T04:34:57.951Z,14.79
2019-05-28T04:35:57.945Z,14.70
2019-05-28T04:36:57.925Z,14.77
2019-05-28T04:37:57.926Z,14.82
2019-05-28T04:38:57.912Z,14.85
2019-05-28T04:39:57.895Z,14.88
2019-05-28T04:40:57.885Z,14.89
2019-05-28T04:41:57.879Z,15.06
2019-05-28T04:42:57.864Z,14.92
2019-05-28T04:43:57.857Z,15.02
2019-05-28T04:44:57.843Z,15.06
2019-05-28T04:45:57.823Z,15.06
2019-05-28T04:46:57.819Z,15.00
2019-05-28T04:47:57.804Z,14.89
2019-05-28T04:48:57.797Z,14.79
2019-05-28T04:49:57.780Z,14.85
2019-05-28T04:50:57.771Z,14.79
2019-05-28T04:51:57.768Z,14.78
2019-05-28T04:52:57.760Z,14.79
2019-05-28T04:53:57.741Z,14.84
2019-05-28T04:54:57.725Z,14.82
2019-05-28T04:55:57.719Z,14.88
2019-05-28T04:56:57.713Z,14.91
2019-05-28T04:57:57.705Z,14.88
2019-05-28T04:58:57.699Z,14.89
2019-05-28T04:59:57.677Z,14.85
2019-05-28T05:00:57.675Z,14.81
2019-05-28T05:01:57.652Z,14.77
2019-05-28T05:03:00.154Z,14.72
2019-05-28T05:03:57.628Z,14.82
2019-05-28T05:04:57.612Z,14.78
2019-05-28T05:05:57.601Z,14.73
2019-05-28T05:06:57.622Z,14.84
2019-05-28T05:07:57.832Z,14.91
2019-05-28T05:08:57.569Z,14.88
2019-05-28T05:09:57.559Z,14.89
2019-05-28T05:10:57.547Z,14.99
2019-05-28T05:11:57.540Z,14.96
2019-05-28T05:12:57.541Z,15.09
2019-05-28T05:13:57.551Z,15.11
2019-05-28T05:14:57.529Z,15.14
2019-05-28T05:15:57.494Z,15.17
2019-05-28T05:16:57.490Z,15.18
2019-05-28T05:17:57.495Z,15.14
2019-05-28T05:18:57.456Z,15.14
2019-05-28T05:19:57.457Z,15.17
2019-05-28T05:20:57.446Z,15.21
2019-05-28T05:21:57.428Z,15.29
2019-05-28T05:22:57.422Z,15.28
2019-05-28T05:23:57.423Z,15.37
2019-05-28T05:24:57.389Z,15.51
2019-05-28T05:25:57.382Z,15.40
2019-05-28T05:26:57.388Z,15.51
2019-05-28T05:27:57.378Z,15.47
2019-05-28T05:28:57.346Z,15.44
2019-05-28T05:29:57.342Z,15.42
2019-05-28T05:30:57.328Z,15.39
2019-05-28T05:31:57.325Z,15.49
2019-05-28T05:32:57.304Z,15.52
2019-05-28T05:33:57.301Z,15.46
2019-05-28T05:34:57.285Z,15.54
2019-05-28T05:35:57.283Z,15.49
2019-05-28T05:36:57.255Z,15.52
2019-05-28T05:37:57.241Z,15.58
2019-05-28T05:38:57.223Z,15.64
2019-05-28T05:39:57.225Z,15.73
2019-05-28T05:40:57.208Z,15.67
2019-05-28T05:41:57.210Z,15.70
2019-05-28T05:42:57.196Z,15.75
2019-05-28T05:43:57.183Z,15.68
2019-05-28T05:44:57.181Z,15.65
2019-05-28T05:45:57.172Z,15.67
2019-05-28T05:46:57.150Z,15.62
2019-05-28T05:47:57.143Z,15.67
2019-05-28T05:48:57.122Z,15.65
2019-05-28T05:49:57.109Z,15.73
2019-05-28T05:50:57.100Z,15.68
2019-05-28T05:51:57.093Z,15.68
2019-05-28T05:52:57.088Z,15.70
2019-05-28T05:53:57.068Z,15.65
2019-05-28T05:54:57.057Z,15.61
2019-05-28T05:55:57.106Z,15.62
2019-05-28T05:56:57.034Z,15.77
2019-05-28T05:57:57.020Z,15.68
2019-05-28T05:58:57.019Z,15.79
2019-05-28T05:59:57.000Z,15.75
2019-05-28T06:00:57.001Z,15.70
2019-05-28T06:01:56.986Z,15.67
2019-05-28T06:02:56.972Z,15.65
2019-05-28T06:03:56.950Z,15.68
2019-05-28T06:04:56.940Z,15.72
2019-05-28T06:05:56.947Z,15.72
2019-05-28T06:06:56.978Z,15.65
2019-05-28T06:07:56.991Z,15.75
2019-05-28T06:08:59.737Z,15.83
2019-05-28T06:09:56.946Z,15.84
2019-05-28T06:10:56.884Z,15.83
2019-05-28T06:11:56.904Z,15.86
2019-05-28T06:12:56.948Z,15.94
2019-05-28T06:13:56.944Z,15.90
2019-05-28T06:14:56.846Z,16.01
2019-05-28T06:15:56.978Z,16.05
2019-05-28T06:16:56.856Z,16.15
2019-05-28T06:17:56.803Z,16.17
2019-05-28T06:18:56.803Z,16.21
2019-05-28T06:19:56.785Z,16.35
2019-05-28T06:21:10.204Z,16.38
2019-05-28T06:21:57.757Z,16.38
2019-05-28T06:22:56.757Z,16.47
2019-05-28T06:23:56.755Z,16.51
2019-05-28T06:24:56.729Z,16.54
2019-05-28T06:25:56.728Z,16.49
2019-05-28T06:26:56.709Z,16.51
2019-05-28T06:27:56.696Z,16.51
2019-05-28T06:28:56.684Z,16.58
2019-05-28T06:29:56.708Z,16.64
2019-05-28T06:30:56.702Z,16.76
2019-05-28T06:31:56.652Z,16.86
2019-05-28T06:32:56.642Z,16.91
2019-05-28T06:33:57.625Z,16.99
2019-05-28T06:34:56.610Z,17.11
2019-05-28T06:35:56.607Z,17.09
2019-05-28T06:36:56.618Z,17.06
2019-05-28T06:37:56.576Z,17.11
2019-05-28T06:38:56.572Z,17.06
2019-05-28T06:39:56.565Z,17.11
2019-05-28T06:40:56.550Z,17.14
2019-05-28T06:41:56.548Z,17.16
2019-05-28T06:42:56.545Z,17.23
2019-05-28T06:43:56.518Z,17.19
2019-05-28T06:44:56.513Z,17.15
2019-05-28T06:45:56.586Z,17.27
2019-05-28T06:46:56.483Z,17.26
2019-05-28T06:47:56.482Z,17.20
2019-05-28T06:48:56.466Z,17.14
2019-05-28T06:49:56.471Z,17.26
2019-05-28T06:50:56.439Z,17.15
2019-05-28T06:51:56.427Z,17.19
2019-05-28T06:52:56.412Z,17.31
2019-05-28T06:53:56.402Z,17.30
2019-05-28T06:54:56.407Z,17.34
2019-05-28T06:55:56.390Z,17.41
2019-05-28T06:56:56.368Z,17.39
2019-05-28T06:57:56.363Z,17.42
2019-05-28T06:58:56.351Z,17.46
2019-05-28T06:59:56.346Z,17.51
2019-05-28T07:00:56.336Z,17.56
2019-05-28T07:01:56.323Z,17.59
2019-05-28T07:02:56.298Z,17.60
2019-05-28T07:04:12.477Z,17.63
2019-05-28T07:04:57.293Z,17.57
2019-05-28T07:06:06.255Z,17.56
2019-05-28T07:06:59.147Z,17.44
2019-05-28T07:07:56.254Z,17.44
2019-05-28T07:08:56.233Z,17.48
2019-05-28T07:09:56.230Z,17.41
2019-05-28T07:10:58.311Z,17.41
2019-05-28T07:11:56.202Z,17.33
2019-05-28T07:12:56.191Z,17.39
2019-05-28T07:13:56.177Z,17.44
2019-05-28T07:14:56.208Z,17.44
2019-05-28T07:15:56.160Z,17.39
2019-05-28T07:16:56.143Z,17.36
2019-05-28T07:17:59.506Z,17.41
2019-05-28T07:18:56.123Z,17.36
2019-05-28T07:19:56.122Z,17.44
2019-05-28T07:20:56.092Z,17.34
2019-05-28T07:21:56.108Z,17.36
2019-05-28T07:22:56.070Z,17.38
2019-05-28T07:23:56.067Z,17.44
2019-05-28T07:24:56.043Z,17.44
2019-05-28T07:25:56.039Z,17.51
2019-05-28T07:26:56.036Z,17.41
2019-05-28T07:28:10.270Z,17.42
2019-05-28T07:28:57.002Z,17.34
2019-05-28T07:29:55.994Z,17.51
2019-05-28T07:30:55.981Z,17.46
2019-05-28T07:31:55.971Z,17.44
2019-05-28T07:32:55.975Z,17.45
2019-05-28T07:33:55.948Z,17.51
2019-05-28T07:34:55.943Z,17.48
2019-05-28T07:35:55.922Z,17.36
2019-05-28T07:36:55.915Z,17.31
2019-05-28T07:37:55.893Z,17.34
2019-05-28T07:38:55.904Z,17.36
2019-05-28T07:39:55.882Z,17.42
2019-05-28T07:40:55.908Z,17.30
2019-05-28T07:41:55.852Z,17.44
2019-05-28T07:42:55.864Z,17.51
2019-05-28T07:43:55.839Z,17.59
2019-05-28T07:44:55.836Z,17.52
2019-05-28T07:45:55.814Z,17.60
2019-05-28T07:46:55.801Z,17.60
2019-05-28T07:47:55.833Z,17.64
2019-05-28T07:48:55.783Z,17.65
2019-05-28T07:49:55.766Z,17.70
2019-05-28T07:50:55.756Z,17.79
2019-05-28T07:51:55.745Z,17.76
2019-05-28T07:52:55.729Z,17.78
2019-05-28T07:53:55.717Z,17.80
2019-05-28T07:54:55.711Z,17.71
2019-05-28T07:55:55.961Z,17.80
2019-05-28T07:56:55.681Z,17.90
2019-05-28T07:57:55.676Z,17.80
2019-05-28T07:58:55.662Z,17.82
2019-05-28T07:59:55.671Z,17.92
2019-05-28T08:00:55.644Z,17.86
2019-05-28T08:01:55.662Z,18.01
2019-05-28T08:02:55.619Z,17.94
2019-05-28T08:03:55.599Z,17.95
2019-05-28T08:04:55.605Z,17.85
2019-05-28T08:05:55.624Z,18.03
2019-05-28T08:06:55.599Z,17.92
2019-05-28T08:07:55.558Z,17.97
2019-05-28T08:08:55.847Z,17.98
2019-05-28T08:09:55.542Z,18.01
2019-05-28T08:10:55.515Z,18.01
2019-05-28T08:11:55.531Z,17.97
2019-05-28T08:12:55.631Z,18.00
2019-05-28T08:13:55.498Z,18.03
2019-05-28T08:14:55.491Z,18.10
2019-05-28T08:15:55.504Z,18.15
2019-05-28T08:16:55.465Z,18.16
2019-05-28T08:17:55.455Z,18.20
2019-05-28T08:18:55.581Z,18.25
2019-05-28T08:19:55.445Z,18.31
2019-05-28T08:20:55.472Z,18.38
2019-05-28T08:21:55.403Z,18.41
2019-05-28T08:22:55.538Z,18.43
2019-05-28T08:23:55.565Z,18.50
2019-05-28T08:24:55.459Z,18.41
2019-05-28T08:25:55.459Z,18.47
2019-05-28T08:26:55.524Z,18.47
2019-05-28T08:27:55.436Z,18.50
2019-05-28T08:28:55.441Z,18.52
2019-05-28T08:29:55.352Z,18.52
2019-05-28T08:30:55.395Z,18.63
2019-05-28T08:31:56.281Z,18.62
2019-05-28T08:32:55.282Z,18.59
2019-05-28T08:33:55.266Z,18.62
2019-05-28T08:35:04.799Z,18.70
2019-05-28T08:35:56.278Z,18.68
2019-05-28T08:37:05.048Z,18.58
2019-05-28T08:37:56.232Z,18.60
2019-05-28T08:38:55.206Z,18.56
2019-05-28T08:39:55.213Z,18.55
2019-05-28T08:40:55.196Z,18.53
2019-05-28T08:41:55.196Z,18.55
2019-05-28T08:42:55.207Z,18.47
2019-05-28T08:43:55.161Z,18.45
2019-05-28T08:44:55.143Z,18.47
2019-05-28T08:45:55.131Z,18.55
2019-05-28T08:46:55.115Z,18.40
2019-05-28T08:47:55.118Z,18.47
2019-05-28T08:48:55.109Z,18.40
2019-05-28T08:49:55.088Z,18.44
2019-05-28T08:50:55.075Z,18.47
2019-05-28T08:51:55.096Z,18.47
2019-05-28T08:52:55.054Z,18.45
2019-05-28T08:53:55.043Z,18.45
2019-05-28T08:54:55.047Z,18.49
2019-05-28T08:55:55.034Z,18.41
2019-05-28T08:56:55.019Z,18.44
2019-05-28T08:57:55.005Z,18.41
2019-05-28T08:58:55.000Z,18.41
2019-05-28T08:59:54.983Z,18.40
2019-05-28T09:00:54.963Z,18.41
2019-05-28T09:01:54.959Z,18.41
2019-05-28T09:02:54.961Z,18.41
2019-05-28T09:03:54.951Z,18.44
2019-05-28T09:04:54.942Z,18.49
2019-05-28T09:05:54.902Z,18.49
2019-05-28T09:06:54.892Z,18.44
2019-05-28T09:07:54.885Z,18.43
2019-05-28T09:08:54.884Z,18.43
2019-05-28T09:09:54.899Z,18.47
2019-05-28T09:10:54.861Z,18.41
2019-05-28T09:11:54.842Z,18.52
2019-05-28T09:12:54.825Z,18.45
2019-05-28T09:13:54.817Z,18.44
2019-05-28T09:14:56.633Z,18.53
2019-05-28T09:15:54.950Z,18.56
2019-05-28T09:16:54.783Z,18.56
2019-05-28T09:17:54.768Z,18.55
2019-05-28T09:18:54.762Z,18.55
2019-05-28T09:19:54.771Z,18.56
2019-05-28T09:20:54.749Z,18.59
2019-05-28T09:21:54.730Z,18.58
2019-05-28T09:22:54.741Z,18.43
2019-05-28T09:23:54.703Z,18.56
2019-05-28T09:24:54.692Z,18.50
2019-05-28T09:25:54.697Z,18.52
2019-05-28T09:26:54.681Z,18.63
2019-05-28T09:27:54.666Z,18.68
2019-05-28T09:28:55.497Z,18.60
2019-05-28T09:29:55.486Z,18.68
2019-05-28T09:30:54.632Z,18.53
2019-05-28T09:31:54.641Z,18.55
2019-05-28T09:32:54.658Z,18.55
2019-05-28T09:33:54.599Z,18.58
2019-05-28T09:34:54.577Z,18.58
2019-05-28T09:36:07.328Z,18.58
2019-05-28T09:36:55.559Z,18.55
2019-05-28T09:37:54.570Z,18.53
2019-05-28T09:38:54.531Z,18.53
2019-05-28T09:39:54.550Z,18.58
2019-05-28T09:40:54.507Z,18.62
2019-05-28T09:41:54.506Z,18.60
2019-05-28T09:42:54.490Z,18.66
2019-05-28T09:43:54.473Z,18.66
2019-05-28T09:44:54.466Z,18.78
2019-05-28T09:45:54.454Z,18.75
2019-05-28T09:46:54.445Z,18.71
2019-05-28T09:47:55.309Z,18.74
2019-05-28T09:48:54.416Z,18.78
2019-05-28T09:49:56.321Z,18.73
2019-05-28T09:50:54.408Z,18.74
2019-05-28T09:51:54.387Z,18.84
2019-05-28T09:52:55.517Z,18.90
2019-05-28T09:53:54.369Z,18.95
2019-05-28T09:54:54.358Z,18.93
2019-05-28T09:55:54.364Z,18.96
2019-05-28T09:56:54.337Z,18.95
2019-05-28T09:57:54.317Z,18.86
2019-05-28T09:58:54.368Z,18.84
2019-05-28T09:59:54.302Z,18.88
2019-05-28T10:00:58.192Z,18.96
2019-05-28T10:01:54.346Z,18.86
2019-05-28T10:02:54.272Z,18.93
2019-05-28T10:03:54.253Z,18.98
2019-05-28T10:04:54.260Z,18.99
2019-05-28T10:06:06.799Z,19.04
2019-05-28T10:06:55.251Z,19.00
2019-05-28T10:07:54.210Z,19.08
2019-05-28T10:08:54.205Z,19.07
2019-05-28T10:09:54.226Z,18.96
2019-05-28T10:10:54.182Z,19.00
2019-05-28T10:11:54.172Z,19.12
2019-05-28T10:12:54.191Z,19.15
2019-05-28T10:13:54.211Z,19.09
2019-05-28T10:14:54.126Z,19.09
2019-05-28T10:15:54.150Z,18.88
2019-05-28T10:16:54.130Z,18.86
2019-05-28T10:17:54.098Z,18.71
2019-05-28T10:18:54.092Z,18.75
2019-05-28T10:19:54.081Z,18.74
2019-05-28T10:20:54.065Z,18.92
2019-05-28T10:21:54.067Z,18.89
2019-05-28T10:22:54.060Z,19.11
2019-05-28T10:23:54.034Z,19.15
2019-05-28T10:24:54.017Z,19.30
2019-05-28T10:25:54.016Z,19.27
2019-05-28T10:26:54.005Z,19.34
2019-05-28T10:28:00.798Z,19.29
2019-05-28T10:28:54.987Z,19.08
2019-05-28T10:29:54.013Z,19.15
2019-05-28T10:30:53.956Z,19.00
2019-05-28T10:31:53.963Z,19.22
2019-05-28T10:32:53.932Z,19.31
2019-05-28T10:33:53.926Z,19.33
2019-05-28T10:35:03.626Z,19.49
2019-05-28T10:35:54.908Z,19.51
2019-05-28T10:36:53.893Z,19.59
2019-05-28T10:37:53.874Z,19.67
2019-05-28T10:38:54.046Z,19.64
2019-05-28T10:39:53.864Z,19.71
2019-05-28T10:40:53.852Z,19.71
2019-05-28T10:41:53.834Z,19.79
2019-05-28T10:42:53.842Z,19.85
2019-05-28T10:43:53.818Z,19.86
2019-05-28T10:44:53.814Z,19.84
2019-05-28T10:45:53.827Z,19.89
2019-05-28T10:46:53.794Z,20.06
2019-05-28T10:47:54.113Z,20.16
2019-05-28T10:48:53.762Z,20.19
2019-05-28T10:49:53.746Z,20.24
2019-05-28T10:50:53.729Z,20.09
2019-05-28T10:51:53.723Z,20.00
2019-05-28T10:52:53.719Z,20.00
2019-05-28T10:53:53.709Z,20.04
2019-05-28T10:54:53.701Z,19.92
2019-05-28T10:55:53.682Z,19.84
2019-05-28T10:56:53.674Z,19.86
2019-05-28T10:57:53.731Z,20.13
2019-05-28T10:58:53.736Z,20.22
2019-05-28T10:59:53.647Z,20.31
2019-05-28T11:00:53.625Z,20.52
2019-05-28T11:01:53.634Z,20.44
2019-05-28T11:02:53.604Z,20.37
2019-05-28T11:03:53.588Z,20.16
2019-05-28T11:04:53.666Z,20.11
2019-05-28T11:05:53.576Z,20.04
2019-05-28T11:06:53.558Z,19.89
2019-05-28T11:07:53.542Z,19.89
2019-05-28T11:08:53.529Z,19.85
2019-05-28T11:09:53.535Z,19.69
2019-05-28T11:10:53.511Z,19.51
2019-05-28T11:11:53.503Z,19.40
2019-05-28T11:12:53.493Z,19.36
2019-05-28T11:13:53.832Z,19.31
2019-05-28T11:14:53.479Z,19.34
2019-05-28T11:15:53.596Z,19.40
2019-05-28T11:16:53.460Z,19.49
2019-05-28T11:17:53.435Z,19.62
2019-05-28T11:18:53.432Z,19.69
2019-05-28T11:19:53.417Z,19.66
2019-05-28T11:20:53.422Z,19.69
2019-05-28T11:21:53.392Z,19.64
2019-05-28T11:22:53.376Z,19.71
2019-05-28T11:23:53.365Z,19.77
2019-05-28T11:24:53.357Z,19.81
2019-05-28T11:25:53.348Z,19.77
2019-05-28T11:26:53.330Z,19.76
2019-05-28T11:27:53.321Z,19.73
2019-05-28T11:28:53.301Z,19.84
2019-05-28T11:29:53.340Z,20.00
2019-05-28T11:30:53.301Z,20.19
2019-05-28T11:31:53.290Z,20.24
2019-05-28T11:32:53.264Z,20.13
2019-05-28T11:33:53.256Z,20.11
2019-05-28T11:34:53.245Z,19.92
2019-05-28T11:35:53.228Z,19.85
2019-05-28T11:37:08.261Z,19.76
2019-05-28T11:37:54.209Z,19.69
2019-05-28T11:38:53.193Z,19.69
2019-05-28T11:39:53.189Z,19.48
2019-05-28T11:40:53.191Z,19.40
2019-05-28T11:41:53.160Z,19.22
2019-05-28T11:42:53.158Z,19.31
2019-05-28T11:43:53.145Z,19.27
2019-05-28T11:44:53.147Z,19.26
2019-05-28T11:45:53.118Z,19.44
2019-05-28T11:46:53.129Z,19.51
2019-05-28T11:47:53.100Z,19.56
2019-05-28T11:48:53.087Z,19.69
2019-05-28T11:49:53.085Z,19.74
2019-05-28T11:50:53.097Z,19.79
2019-05-28T11:51:53.051Z,19.84
2019-05-28T11:52:53.068Z,19.77
2019-05-28T11:53:53.029Z,19.86
2019-05-28T11:54:53.022Z,19.84
2019-05-28T11:55:53.070Z,19.85
2019-05-28T11:56:52.994Z,19.89
2019-05-28T11:57:53.001Z,19.89
2019-05-28T11:58:52.972Z,19.86
2019-05-28T11:59:52.964Z,19.89
2019-05-28T12:00:52.957Z,19.85
2019-05-28T12:01:52.944Z,19.82
2019-05-28T12:02:52.929Z,19.81
2019-05-28T12:03:52.921Z,19.86
2019-05-28T12:04:52.909Z,19.77
2019-05-28T12:05:52.940Z,19.82
2019-05-28T12:06:52.897Z,19.81
2019-05-28T12:07:52.882Z,19.82
2019-05-28T12:08:52.870Z,19.85
2019-05-28T12:09:52.861Z,19.86
2019-05-28T12:10:52.838Z,19.88
2019-05-28T12:11:52.841Z,19.89
2019-05-28T12:12:52.822Z,19.88
2019-05-28T12:13:52.807Z,19.76
2019-05-28T12:14:52.803Z,19.76
2019-05-28T12:15:52.802Z,19.69
2019-05-28T12:16:52.796Z,19.67
2019-05-28T12:17:52.785Z,19.73
2019-05-28T12:18:52.750Z,19.70
2019-05-28T12:19:52.743Z,19.79
2019-05-28T12:20:52.739Z,19.89
2019-05-28T12:21:52.714Z,19.86
2019-05-28T12:23:09.578Z,19.84
2019-05-28T12:23:53.686Z,19.73
2019-05-28T12:24:52.695Z,19.84
2019-05-28T12:25:52.672Z,19.73
2019-05-28T12:26:52.793Z,19.82
2019-05-28T12:27:52.653Z,19.77
2019-05-28T12:28:52.639Z,19.84
2019-05-28T12:29:52.673Z,19.77
2019-05-28T12:30:52.623Z,19.77
2019-05-28T12:31:53.838Z,19.89
2019-05-28T12:32:52.606Z,19.88
2019-05-28T12:33:52.619Z,19.91
2019-05-28T12:34:52.590Z,19.95
2019-05-28T12:35:52.573Z,19.94
2019-05-28T12:36:52.572Z,20.04
2019-05-28T12:37:52.540Z,20.07
2019-05-28T12:38:52.526Z,20.06
2019-05-28T12:39:52.523Z,20.06
2019-05-28T12:40:52.508Z,20.04
2019-05-28T12:42:01.401Z,20.06
2019-05-28T12:42:53.490Z,19.94
2019-05-28T12:43:52.613Z,19.91
2019-05-28T12:45:08.407Z,19.73
2019-05-28T12:45:53.457Z,19.59
2019-05-28T12:46:52.444Z,19.59
2019-05-28T12:48:12.097Z,19.64
2019-05-28T12:48:53.420Z,19.63
2019-05-28T12:49:52.410Z,19.66
2019-05-28T12:50:52.399Z,19.69
2019-05-28T12:51:52.388Z,19.66
2019-05-28T12:52:52.379Z,19.70